createdAt,value
2022-09-09T05:30:32.389Z,15.00
2022-09-09T05:32:59.614Z,15.10
2022-09-09T05:35:26.952Z,15.10
2022-09-09T05:37:54.112Z,15.20
2022-09-09T05:40:22.530Z,15.30
2022-09-09T05:42:50.029Z,15.30
2022-09-09T05:45:17.179Z,15.30
2022-09-09T05:47:44.311Z,15.50
2022-09-09T05:50:11.502Z,15.50
2022-09-09T05:52:38.640Z,15.60
2022-09-09T05:55:07.344Z,15.60
2022-09-09T05:57:35.504Z,15.60
2022-09-09T06:00:03.825Z,15.60
2022-09-09T06:02:31.147Z,15.60
2022-09-09T06:05:00.602Z,15.80
2022-09-09T06:07:28.188Z,16.00
2022-09-09T06:09:55.515Z,16.30
2022-09-09T06:12:22.659Z,16.90
2022-09-09T06:14:51.862Z,17.20
2022-09-09T06:17:19.012Z,18.20
2022-09-09T06:19:46.222Z,19.30
2022-09-09T06:22:13.516Z,20.10
2022-09-09T06:24:41.776Z,20.20
2022-09-09T06:27:08.916Z,20.20
2022-09-09T06:29:36.294Z,20.00
2022-09-09T06:32:04.623Z,20.50
2022-09-09T06:34:31.863Z,21.80
2022-09-09T06:36:59.428Z,22.40
2022-09-09T06:39:26.877Z,22.10
2022-09-09T06:41:54.284Z,21.40
2022-09-09T06:44:21.576Z,20.50
2022-09-09T06:46:49.060Z,20.00
2022-09-09T06:49:16.281Z,19.60
2022-09-09T06:51:44.752Z,19.10
2022-09-09T06:54:13.158Z,19.00
2022-09-09T06:56:43.816Z,19.20
2022-09-09T06:59:13.095Z,20.70
2022-09-09T07:01:42.154Z,21.50
2022-09-09T07:04:10.497Z,22.20
2022-09-09T07:06:40.909Z,22.80
2022-09-09T07:09:10.121Z,21.90
2022-09-09T07:11:40.954Z,22.20
2022-09-09T07:14:08.901Z,22.40
2022-09-09T07:16:38.269Z,23.00
2022-09-09T07:19:05.787Z,23.00
2022-09-09T07:21:34.227Z,23.50
2022-09-09T07:24:02.673Z,24.50
2022-09-09T07:26:32.130Z,25.50
2022-09-09T07:28:59.466Z,25.50
2022-09-09T07:31:30.971Z,25.80
2022-09-09T07:33:59.236Z,24.10
2022-09-09T07:36:33.267Z,23.70
2022-09-09T07:39:04.572Z,23.20
2022-09-09T07:41:38.557Z,22.10
2022-09-09T07:44:09.350Z,22.10
2022-09-09T07:46:37.332Z,22.90
2022-09-09T07:49:04.787Z,22.90
2022-09-09T07:51:34.707Z,23.50
2022-09-09T07:54:05.515Z,25.20
2022-09-09T07:56:33.837Z,26.20
2022-09-09T07:59:02.370Z,26.10
2022-09-09T08:01:32.683Z,26.70
2022-09-09T08:04:03.897Z,27.10
2022-09-09T08:06:36.701Z,26.80
2022-09-09T08:09:05.912Z,27.40
2022-09-09T08:11:38.619Z,27.70
2022-09-09T08:14:09.421Z,27.80
2022-09-09T08:16:41.373Z,26.50
2022-09-09T08:19:09.146Z,25.00
2022-09-09T08:21:41.032Z,23.80
2022-09-09T08:24:11.405Z,22.80
2022-09-09T08:26:42.731Z,22.20
2022-09-09T08:29:12.662Z,22.20
2022-09-09T08:31:43.534Z,23.90
2022-09-09T08:34:11.597Z,25.60
2022-09-09T08:36:43.528Z,26.60
2022-09-09T08:39:13.113Z,27.10
2022-09-09T08:42:03.686Z,27.70
2022-09-09T08:45:10.909Z,28.20
2022-09-09T08:47:56.033Z,27.80
2022-09-09T08:50:39.703Z,27.00
2022-09-09T08:53:18.692Z,28.20
2022-09-09T08:58:29.151Z,28.90
2022-09-09T09:01:22.742Z,26.50
2022-09-09T09:04:30.171Z,25.70
2022-09-09T09:07:14.942Z,25.10
2022-09-09T09:10:18.912Z,25.50
2022-09-09T09:12:54.014Z,25.50
2022-09-09T09:15:28.325Z,25.30
2022-09-09T09:17:58.590Z,24.70
2022-09-09T09:20:42.617Z,23.90
2022-09-09T09:23:20.477Z,23.30
2022-09-09T09:25:47.838Z,22.60
2022-09-09T09:28:27.825Z,22.00
2022-09-09T09:31:02.767Z,21.70
2022-09-09T09:33:50.497Z,21.40
2022-09-09T09:36:18.513Z,21.20
2022-09-09T09:41:44.563Z,20.80
2022-09-09T09:44:28.474Z,20.40
2022-09-09T09:47:13.344Z,20.20
2022-09-09T09:49:51.587Z,21.60
2022-09-09T09:52:23.852Z,23.50
2022-09-09T09:54:52.896Z,24.70
2022-09-09T09:57:30.263Z,26.00
2022-09-09T10:00:23.380Z,26.00
2022-09-09T10:02:53.871Z,25.60
2022-09-09T10:05:27.496Z,25.30
2022-09-09T10:08:17.584Z,25.00
2022-09-09T10:11:10.658Z,25.00
2022-09-09T10:13:51.220Z,25.70
2022-09-09T10:19:21.939Z,27.30
2022-09-09T10:22:29.170Z,26.00
2022-09-09T10:25:26.308Z,25.00
2022-09-09T10:28:25.268Z,23.50
2022-09-09T10:31:23.846Z,22.20
2022-09-09T10:34:22.061Z,21.50
2022-09-09T10:36:51.974Z,20.30
2022-09-09T10:39:40.517Z,19.80
2022-09-09T10:42:15.203Z,19.60
2022-09-09T10:45:08.949Z,19.70
2022-09-09T10:48:12.683Z,20.00
2022-09-09T10:51:11.997Z,19.90
2022-09-09T10:54:20.010Z,19.70
2022-09-09T10:56:57.693Z,19.30
2022-09-09T10:59:30.300Z,18.90
2022-09-09T11:02:06.891Z,18.50
2022-09-09T11:04:50.976Z,18.50
2022-09-09T11:07:30.017Z,18.20
2022-09-09T11:10:03.808Z,18.10
2022-09-09T11:12:34.261Z,18.10
2022-09-09T11:15:18.219Z,17.80
2022-09-09T11:17:51.535Z,17.70
2022-09-09T11:20:19.033Z,17.40
2022-09-09T11:23:10.340Z,17.30
2022-09-09T11:25:42.738Z,17.20
2022-09-09T11:28:38.144Z,17.00
2022-09-09T11:31:38.138Z,17.00
2022-09-09T11:37:39.214Z,16.90
2022-09-09T11:40:20.257Z,17.10
2022-09-09T11:42:52.198Z,17.10
2022-09-09T11:48:01.705Z,17.50
2022-09-09T11:50:32.127Z,17.90
2022-09-09T11:58:56.590Z,18.10
2022-09-09T12:01:45.863Z,19.50
2022-09-09T12:04:37.769Z,19.70
2022-09-09T12:07:25.565Z,19.90
2022-09-09T12:10:02.124Z,20.00
2022-09-09T12:12:36.761Z,20.10
2022-09-09T12:17:52.131Z,20.30
2022-09-09T12:20:27.770Z,20.30
2022-09-09T12:23:13.526Z,20.60
2022-09-09T12:26:20.518Z,20.50
2022-09-09T12:29:13.776Z,20.80
2022-09-09T12:31:57.519Z,20.90
2022-09-09T12:34:39.954Z,21.10
2022-09-09T12:37:35.025Z,21.40
2022-09-09T12:40:06.690Z,21.20
2022-09-09T12:42:37.917Z,21.30
2022-09-09T12:45:19.213Z,21.30
2022-09-09T12:47:54.841Z,21.40
2022-09-09T12:50:28.540Z,21.40
2022-09-09T12:52:59.606Z,21.30
2022-09-09T12:55:31.966Z,21.20
2022-09-09T12:58:01.142Z,21.30
2022-09-09T13:00:29.223Z,21.50
2022-09-09T13:03:00.176Z,21.40
2022-09-09T13:05:35.135Z,21.30
2022-09-09T13:08:04.578Z,21.40
2022-09-09T13:10:52.958Z,21.50
2022-09-09T13:13:25.084Z,21.50
2022-09-09T13:15:58.819Z,21.40
2022-09-09T13:18:30.662Z,21.20
2022-09-09T13:20:59.973Z,21.50
2022-09-09T13:23:32.135Z,21.80
2022-09-09T13:26:02.071Z,22.10
2022-09-09T13:28:33.718Z,22.10
2022-09-09T13:31:04.628Z,21.80
2022-09-09T13:33:38.596Z,21.90
2022-09-09T13:36:09.374Z,21.90
2022-09-09T13:38:42.172Z,21.80
2022-09-09T13:41:10.400Z,21.80
2022-09-09T13:43:43.639Z,21.80
2022-09-09T13:46:36.194Z,21.70
2022-09-09T13:49:21.772Z,21.80
2022-09-09T13:51:53.330Z,21.70
2022-09-09T13:54:22.256Z,21.60
2022-09-09T13:56:50.724Z,21.70
2022-09-09T13:59:22.386Z,21.60
2022-09-09T14:01:50.917Z,21.50
2022-09-09T14:04:18.375Z,21.40
2022-09-09T14:06:45.673Z,21.30
2022-09-09T14:09:14.441Z,21.10
2022-09-09T14:11:41.994Z,21.10
2022-09-09T14:14:09.291Z,21.30
2022-09-09T14:16:37.461Z,21.40
2022-09-09T14:19:04.905Z,21.50
2022-09-09T14:21:32.426Z,21.60
2022-09-09T14:23:59.759Z,21.40
2022-09-09T14:26:27.439Z,21.40
2022-09-09T14:28:55.958Z,21.40
2022-09-09T14:31:25.171Z,21.40
2022-09-09T14:33:52.572Z,21.60
2022-09-09T14:36:20.324Z,21.60
2022-09-09T14:38:47.837Z,21.50
2022-09-09T14:41:18.421Z,21.60
2022-09-09T14:43:46.812Z,21.70
2022-09-09T14:46:16.757Z,22.00
2022-09-09T14:48:45.033Z,22.40
2022-09-09T14:51:16.743Z,22.60
2022-09-09T14:53:45.019Z,22.70
2022-09-09T14:56:16.187Z,22.90
2022-09-09T14:58:44.783Z,23.00
2022-09-09T15:01:14.853Z,23.00
2022-09-09T15:03:44.428Z,23.00
2022-09-09T15:06:13.923Z,23.10
2022-09-09T15:08:44.022Z,23.00
2022-09-09T15:11:12.647Z,22.90
2022-09-09T15:13:42.227Z,22.90
2022-09-09T15:16:13.974Z,22.80
2022-09-09T15:18:45.956Z,22.60
2022-09-09T15:21:16.854Z,22.40
2022-09-09T15:23:44.523Z,21.90
2022-09-09T15:26:15.089Z,21.60
2022-09-09T15:28:44.659Z,21.40
2022-09-09T15:31:19.188Z,21.00
2022-09-09T15:33:53.080Z,20.80
2022-09-09T15:36:25.675Z,20.70
2022-09-09T15:38:53.950Z,20.60
2022-09-09T15:41:23.168Z,20.50
2022-09-09T15:43:53.341Z,20.40
2022-09-09T15:46:28.929Z,20.20
2022-09-09T15:48:58.425Z,19.80
2022-09-09T15:51:43.892Z,19.50
2022-09-09T15:54:17.541Z,19.10
2022-09-09T15:56:46.470Z,18.20
2022-09-09T15:59:14.702Z,17.60
